createdAt,value
2019-05-10T00:00:03.419Z,14.25
2019-05-10T00:01:03.420Z,14.35
2019-05-10T00:02:03.432Z,14.26
2019-05-10T00:03:03.431Z,14.28
2019-05-10T00:04:03.405Z,14.28
2019-05-10T00:05:03.416Z,14.17
2019-05-10T00:06:03.407Z,14.17
2019-05-10T00:07:03.399Z,14.22
2019-05-10T00:08:03.388Z,14.23
2019-05-10T00:09:03.384Z,14.23
2019-05-10T00:10:03.377Z,14.20
2019-05-10T00:11:03.373Z,14.10
2019-05-10T00:12:03.382Z,14.15
2019-05-10T00:13:03.364Z,14.12
2019-05-10T00:14:03.367Z,14.08
2019-05-10T00:15:03.363Z,14.08
2019-05-10T00:16:03.351Z,14.12
2019-05-10T00:17:03.463Z,14.03
2019-05-10T00:18:03.346Z,14.10
2019-05-10T00:19:03.340Z,14.14
2019-05-10T00:20:03.337Z,14.10
2019-05-10T00:21:03.332Z,14.08
2019-05-10T00:22:03.329Z,14.08
2019-05-10T00:23:03.323Z,14.10
2019-05-10T00:24:03.320Z,14.10
2019-05-10T00:25:04.962Z,14.10
2019-05-10T00:26:03.309Z,14.05
2019-05-10T00:27:03.306Z,14.12
2019-05-10T00:28:03.300Z,14.11
2019-05-10T00:29:03.298Z,14.17
2019-05-10T00:30:03.291Z,14.14
2019-05-10T00:31:03.291Z,14.11
2019-05-10T00:32:03.289Z,14.11
2019-05-10T00:33:03.305Z,14.12
2019-05-10T00:34:03.273Z,14.11
2019-05-10T00:35:03.269Z,14.03
2019-05-10T00:36:03.266Z,14.04
2019-05-10T00:37:03.261Z,14.03
2019-05-10T00:38:03.255Z,13.95
2019-05-10T00:39:03.257Z,13.93
2019-05-10T00:40:03.250Z,13.93
2019-05-10T00:41:03.285Z,13.99
2019-05-10T00:42:03.239Z,13.90
2019-05-10T00:43:03.234Z,13.97
2019-05-10T00:44:03.239Z,13.97
2019-05-10T00:45:03.228Z,13.92
2019-05-10T00:46:03.221Z,13.85
2019-05-10T00:47:03.215Z,13.83
2019-05-10T00:48:03.214Z,13.81
2019-05-10T00:49:03.207Z,13.89
2019-05-10T00:50:03.204Z,13.79
2019-05-10T00:51:03.211Z,13.85
2019-05-10T00:52:03.196Z,13.83
2019-05-10T00:53:03.192Z,13.74
2019-05-10T00:54:03.184Z,13.85
2019-05-10T00:55:17.916Z,13.85
2019-05-10T00:56:03.174Z,13.83
2019-05-10T00:57:03.169Z,13.87
2019-05-10T00:58:03.162Z,13.83
2019-05-10T00:59:03.159Z,13.86
2019-05-10T01:00:03.158Z,13.71
2019-05-10T01:01:03.218Z,13.72
2019-05-10T01:02:03.147Z,13.68
2019-05-10T01:03:03.143Z,13.67
2019-05-10T01:04:03.141Z,13.65
2019-05-10T01:05:03.136Z,13.70
2019-05-10T01:06:03.161Z,13.71
2019-05-10T01:07:03.129Z,13.74
2019-05-10T01:08:03.127Z,13.65
2019-05-10T01:09:03.125Z,13.72
2019-05-10T01:10:03.113Z,13.70
2019-05-10T01:11:03.110Z,13.68
2019-05-10T01:12:03.102Z,13.74
2019-05-10T01:13:03.116Z,13.67
2019-05-10T01:14:03.092Z,13.70
2019-05-10T01:15:03.084Z,13.72
2019-05-10T01:16:03.079Z,13.67
2019-05-10T01:17:03.081Z,13.74
2019-05-10T01:18:03.080Z,13.70
2019-05-10T01:19:03.068Z,13.68
2019-05-10T01:20:03.065Z,13.63
2019-05-10T01:21:03.059Z,13.72
2019-05-10T01:22:03.056Z,13.71
2019-05-10T01:23:03.052Z,13.71
2019-05-10T01:24:03.317Z,13.68
2019-05-10T01:25:03.038Z,13.59
2019-05-10T01:26:03.036Z,13.65
2019-05-10T01:27:03.033Z,13.60
2019-05-10T01:28:03.031Z,13.59
2019-05-10T01:29:03.025Z,13.57
2019-05-10T01:30:03.016Z,13.52
2019-05-10T01:31:03.018Z,13.60
2019-05-10T01:32:03.006Z,13.52
2019-05-10T01:33:03.004Z,13.53
2019-05-10T01:34:02.996Z,13.49
2019-05-10T01:35:02.995Z,13.44
2019-05-10T01:36:02.991Z,13.39
2019-05-10T01:37:02.981Z,13.38
2019-05-10T01:38:02.980Z,13.28
2019-05-10T01:39:02.974Z,13.37
2019-05-10T01:40:02.969Z,13.42
2019-05-10T01:41:02.971Z,13.25
2019-05-10T01:42:02.960Z,13.28
2019-05-10T01:43:02.955Z,13.22
2019-05-10T01:44:02.960Z,13.23
2019-05-10T01:45:02.944Z,13.25
2019-05-10T01:46:02.963Z,13.15
2019-05-10T01:47:03.037Z,13.18
2019-05-10T01:48:02.930Z,13.27
2019-05-10T01:49:02.941Z,13.11
2019-05-10T01:50:02.919Z,13.15
2019-05-10T01:51:02.972Z,13.15
2019-05-10T01:52:02.910Z,13.04
2019-05-10T01:53:02.909Z,13.13
2019-05-10T01:54:02.930Z,12.97
2019-05-10T01:55:03.786Z,13.15
2019-05-10T01:56:02.890Z,13.04
2019-05-10T01:57:02.886Z,13.04
2019-05-10T01:58:02.878Z,13.01
2019-05-10T01:59:02.873Z,13.11
2019-05-10T02:00:02.869Z,13.08
2019-05-10T02:01:03.169Z,13.05
2019-05-10T02:02:02.862Z,13.00
2019-05-10T02:03:02.857Z,12.98
2019-05-10T02:04:02.850Z,12.93
2019-05-10T02:05:02.849Z,13.01
2019-05-10T02:06:02.839Z,12.91
2019-05-10T02:07:02.833Z,12.95
2019-05-10T02:08:02.828Z,12.95
2019-05-10T02:09:02.821Z,12.95
2019-05-10T02:10:02.822Z,12.93
2019-05-10T02:11:02.819Z,12.95
2019-05-10T02:12:02.832Z,12.90
2019-05-10T02:13:02.803Z,12.91
2019-05-10T02:14:02.796Z,12.93
2019-05-10T02:15:02.800Z,12.97
2019-05-10T02:16:02.785Z,12.93
2019-05-10T02:17:02.788Z,12.93
2019-05-10T02:18:02.776Z,12.93
2019-05-10T02:19:02.770Z,12.90
2019-05-10T02:20:02.767Z,12.91
2019-05-10T02:21:02.765Z,12.73
2019-05-10T02:22:02.777Z,12.82
2019-05-10T02:23:02.937Z,12.85
2019-05-10T02:24:02.910Z,12.72
2019-05-10T02:25:03.029Z,12.73
2019-05-10T02:26:09.595Z,12.70
2019-05-10T02:27:02.732Z,12.67
2019-05-10T02:28:02.721Z,12.58
2019-05-10T02:29:02.900Z,12.65
2019-05-10T02:30:02.854Z,12.67
2019-05-10T02:31:02.750Z,12.57
2019-05-10T02:32:02.830Z,12.60
2019-05-10T02:33:02.785Z,12.62
2019-05-10T02:34:02.693Z,12.53
2019-05-10T02:35:02.686Z,12.65
2019-05-10T02:36:02.683Z,12.60
2019-05-10T02:37:02.675Z,12.64
2019-05-10T02:38:02.676Z,12.60
2019-05-10T02:39:02.840Z,12.64
2019-05-10T02:40:02.679Z,12.60
2019-05-10T02:41:02.653Z,12.57
2019-05-10T02:42:02.650Z,12.70
2019-05-10T02:43:02.672Z,12.72
2019-05-10T02:44:02.639Z,12.72
2019-05-10T02:45:02.637Z,12.72
2019-05-10T02:46:02.630Z,12.73
2019-05-10T02:47:02.624Z,12.72
2019-05-10T02:48:02.619Z,12.76
2019-05-10T02:49:02.612Z,12.79
2019-05-10T02:50:02.613Z,12.79
2019-05-10T02:51:02.604Z,12.79
2019-05-10T02:52:02.607Z,12.83
2019-05-10T02:53:02.593Z,12.85
2019-05-10T02:54:02.588Z,12.80
2019-05-10T02:55:02.590Z,12.83
2019-05-10T02:56:02.656Z,12.90
2019-05-10T02:57:02.646Z,12.91
2019-05-10T02:58:02.564Z,12.97
2019-05-10T02:59:02.559Z,12.87
2019-05-10T03:00:02.558Z,12.90
2019-05-10T03:01:02.548Z,12.80
2019-05-10T03:02:02.545Z,12.95
2019-05-10T03:03:02.567Z,12.90
2019-05-10T03:04:02.537Z,12.90
2019-05-10T03:05:02.524Z,12.87
2019-05-10T03:06:02.552Z,12.98
2019-05-10T03:07:02.515Z,12.91
2019-05-10T03:08:02.509Z,12.93
2019-05-10T03:09:02.506Z,12.95
2019-05-10T03:10:02.497Z,12.93
2019-05-10T03:11:02.493Z,12.95
2019-05-10T03:12:03.155Z,12.95
2019-05-10T03:13:02.500Z,13.01
2019-05-10T03:14:02.471Z,12.95
2019-05-10T03:15:02.473Z,12.93
2019-05-10T03:16:02.469Z,12.93
2019-05-10T03:17:02.480Z,13.00
2019-05-10T03:18:38.244Z,12.95
2019-05-10T03:19:02.452Z,12.91
2019-05-10T03:20:02.448Z,12.90
2019-05-10T03:21:02.443Z,12.95
2019-05-10T03:22:02.449Z,12.95
2019-05-10T03:23:02.434Z,12.95
2019-05-10T03:24:02.428Z,12.94
2019-05-10T03:25:02.424Z,12.91
2019-05-10T03:26:02.419Z,12.94
2019-05-10T03:27:03.138Z,12.91
2019-05-10T03:28:02.407Z,12.95
2019-05-10T03:29:02.405Z,12.90
2019-05-10T03:30:02.396Z,12.94
2019-05-10T03:31:02.391Z,12.93
2019-05-10T03:32:02.388Z,12.95
2019-05-10T03:33:02.381Z,12.91
2019-05-10T03:34:02.454Z,13.04
2019-05-10T03:35:02.384Z,12.97
2019-05-10T03:36:02.364Z,12.90
2019-05-10T03:37:02.357Z,12.95
2019-05-10T03:38:02.353Z,12.95
2019-05-10T03:39:02.373Z,12.93
2019-05-10T03:40:02.343Z,12.90
2019-05-10T03:41:02.346Z,12.91
2019-05-10T03:42:02.352Z,12.95
2019-05-10T03:43:02.334Z,12.95
2019-05-10T03:44:02.351Z,12.97
2019-05-10T03:45:02.317Z,12.90
2019-05-10T03:46:02.313Z,12.94
2019-05-10T03:47:02.309Z,12.97
2019-05-10T03:48:02.303Z,12.86
2019-05-10T03:49:02.404Z,12.94
2019-05-10T03:50:02.293Z,12.94
2019-05-10T03:51:02.301Z,12.94
2019-05-10T03:52:02.284Z,13.00
2019-05-10T03:53:02.276Z,12.98
2019-05-10T03:54:02.271Z,12.97
2019-05-10T03:55:02.265Z,13.04
2019-05-10T03:56:02.268Z,13.09
2019-05-10T03:57:12.864Z,12.98
2019-05-10T03:58:02.250Z,13.08
2019-05-10T03:59:02.267Z,13.20
2019-05-10T04:00:02.248Z,13.16
2019-05-10T04:01:02.241Z,13.09
2019-05-10T04:02:02.232Z,13.13
2019-05-10T04:03:02.226Z,13.11
2019-05-10T04:04:02.228Z,13.11
2019-05-10T04:05:02.217Z,13.19
2019-05-10T04:06:02.216Z,13.19
2019-05-10T04:07:02.213Z,13.19
2019-05-10T04:08:02.202Z,13.23
2019-05-10T04:09:02.193Z,13.22
2019-05-10T04:10:02.200Z,13.22
2019-05-10T04:11:02.183Z,13.41
2019-05-10T04:12:02.179Z,13.37
2019-05-10T04:13:02.174Z,13.39
2019-05-10T04:14:02.185Z,13.41
2019-05-10T04:15:02.165Z,13.39
2019-05-10T04:16:02.258Z,13.33
2019-05-10T04:17:02.156Z,13.33
2019-05-10T04:18:02.149Z,13.37
2019-05-10T04:19:02.144Z,13.38
2019-05-10T04:20:02.142Z,13.38
2019-05-10T04:21:02.137Z,13.41
2019-05-10T04:22:02.152Z,13.41
2019-05-10T04:23:02.124Z,13.42
2019-05-10T04:24:02.121Z,13.37
2019-05-10T04:25:02.120Z,13.56
2019-05-10T04:26:02.130Z,13.52
2019-05-10T04:27:02.105Z,13.53
2019-05-10T04:28:02.101Z,13.62
2019-05-10T04:29:02.101Z,13.57
2019-05-10T04:30:02.091Z,13.67
2019-05-10T04:31:02.088Z,13.68
2019-05-10T04:32:02.089Z,13.74
2019-05-10T04:33:02.084Z,13.74
2019-05-10T04:34:02.071Z,13.70
2019-05-10T04:35:02.067Z,13.71
2019-05-10T04:36:02.067Z,13.71
2019-05-10T04:37:02.062Z,13.71
2019-05-10T04:38:02.055Z,13.68
2019-05-10T04:39:02.053Z,13.71
2019-05-10T04:40:02.090Z,13.70
2019-05-10T04:41:02.037Z,13.70
2019-05-10T04:42:02.035Z,13.71
2019-05-10T04:43:02.042Z,13.72
2019-05-10T04:44:02.037Z,13.72
2019-05-10T04:45:02.028Z,13.72
2019-05-10T04:46:02.025Z,13.77
2019-05-10T04:47:02.014Z,13.75
2019-05-10T04:48:02.007Z,13.85
2019-05-10T04:49:02.008Z,13.77
2019-05-10T04:50:02.006Z,13.71
2019-05-10T04:51:02.025Z,13.83
2019-05-10T04:52:01.996Z,13.86
2019-05-10T04:53:01.987Z,13.85
2019-05-10T04:54:02.052Z,13.79
2019-05-10T04:55:01.980Z,13.83
2019-05-10T04:56:01.971Z,13.81
2019-05-10T04:57:01.968Z,13.95
2019-05-10T04:58:01.962Z,13.93
2019-05-10T04:59:02.461Z,13.96
2019-05-10T05:00:02.000Z,14.00
2019-05-10T05:01:01.954Z,14.10
2019-05-10T05:02:01.949Z,14.12
2019-05-10T05:03:01.942Z,14.28
2019-05-10T05:04:02.017Z,14.32
2019-05-10T05:05:01.957Z,14.36
2019-05-10T05:06:01.931Z,14.33
2019-05-10T05:07:01.925Z,14.35
2019-05-10T05:08:01.917Z,14.43
2019-05-10T05:09:01.920Z,14.43
2019-05-10T05:10:01.920Z,14.47
2019-05-10T05:11:01.904Z,14.45
2019-05-10T05:12:01.919Z,14.51
2019-05-10T05:13:01.896Z,14.51
2019-05-10T05:14:01.894Z,14.47
2019-05-10T05:15:01.901Z,14.50
2019-05-10T05:16:01.892Z,14.48
2019-05-10T05:17:01.880Z,14.43
2019-05-10T05:18:01.877Z,14.44
2019-05-10T05:19:01.874Z,14.47
2019-05-10T05:20:01.876Z,14.47
2019-05-10T05:21:01.868Z,14.40
2019-05-10T05:22:01.869Z,14.37
2019-05-10T05:23:01.871Z,14.37
2019-05-10T05:24:01.851Z,14.41
2019-05-10T05:25:03.788Z,14.41
2019-05-10T05:26:01.845Z,14.41
2019-05-10T05:27:01.840Z,14.43
2019-05-10T05:28:07.818Z,14.36
2019-05-10T05:29:01.834Z,14.36
2019-05-10T05:30:01.907Z,14.35
2019-05-10T05:31:01.823Z,14.43
2019-05-10T05:32:03.610Z,14.36
2019-05-10T05:33:01.818Z,14.41
2019-05-10T05:34:04.921Z,14.44
2019-05-10T05:35:01.813Z,14.45
2019-05-10T05:36:02.483Z,14.37
2019-05-10T05:37:01.798Z,14.41
2019-05-10T05:38:01.797Z,14.50
2019-05-10T05:39:01.814Z,14.41
2019-05-10T05:40:01.801Z,14.37
2019-05-10T05:41:01.804Z,14.37
2019-05-10T05:42:01.780Z,14.43
2019-05-10T05:43:02.706Z,14.45
2019-05-10T05:44:01.772Z,14.45
2019-05-10T05:45:01.777Z,14.50
2019-05-10T05:46:01.760Z,14.47
2019-05-10T05:47:04.548Z,14.48
2019-05-10T05:48:02.676Z,14.43
2019-05-10T05:49:01.753Z,14.53
2019-05-10T05:50:01.749Z,14.54
2019-05-10T05:51:01.743Z,14.77
2019-05-10T05:52:01.735Z,14.84
2019-05-10T05:53:01.740Z,15.37
2019-05-10T05:54:04.099Z,15.76
2019-05-10T05:55:01.762Z,15.86
2019-05-10T05:56:03.622Z,15.97
2019-05-10T05:57:01.716Z,15.90
2019-05-10T05:58:05.042Z,15.86
2019-05-10T05:59:01.710Z,15.94
2019-05-10T06:00:04.333Z,15.94
2019-05-10T06:01:01.703Z,15.86
2019-05-10T06:02:07.533Z,15.95
2019-05-10T06:03:01.698Z,15.88
2019-05-10T06:04:06.226Z,15.86
2019-05-10T06:05:01.697Z,15.83
2019-05-10T06:06:01.702Z,15.68
2019-05-10T06:07:01.685Z,15.76
2019-05-10T06:08:01.764Z,15.73
2019-05-10T06:09:01.768Z,15.77
2019-05-10T06:10:01.735Z,15.77
2019-05-10T06:11:01.673Z,15.80
2019-05-10T06:12:01.670Z,15.75
2019-05-10T06:13:01.669Z,15.68
2019-05-10T06:14:03.804Z,15.72
2019-05-10T06:15:01.659Z,15.75
2019-05-10T06:16:06.454Z,15.75
2019-05-10T06:17:01.653Z,15.84
2019-05-10T06:18:03.588Z,15.79
2019-05-10T06:19:01.654Z,15.82
2019-05-10T06:20:05.986Z,15.88
2019-05-10T06:21:01.640Z,15.84
2019-05-10T06:22:04.513Z,15.91
2019-05-10T06:23:06.856Z,15.91
2019-05-10T06:24:01.631Z,15.94
2019-05-10T06:25:01.630Z,16.04
2019-05-10T06:26:01.630Z,15.98
2019-05-10T06:27:03.481Z,16.04
2019-05-10T06:28:01.624Z,15.98
2019-05-10T06:29:04.468Z,16.09
2019-05-10T06:30:01.616Z,16.08
2019-05-10T06:31:01.797Z,16.00
2019-05-10T06:32:01.613Z,16.01
2019-05-10T06:33:12.061Z,15.92
2019-05-10T06:34:01.609Z,15.86
2019-05-10T06:35:01.613Z,15.95
2019-05-10T06:36:01.601Z,15.88
2019-05-10T06:37:01.600Z,15.83
2019-05-10T06:38:01.599Z,15.84
2019-05-10T06:39:01.609Z,15.83
2019-05-10T06:40:01.710Z,15.83
2019-05-10T06:41:01.587Z,15.88
2019-05-10T06:42:01.591Z,15.88
2019-05-10T06:43:01.688Z,15.95
2019-05-10T06:44:01.579Z,15.91
2019-05-10T06:45:05.080Z,15.92
2019-05-10T06:46:01.572Z,15.94
2019-05-10T06:47:02.061Z,15.95
2019-05-10T06:48:01.568Z,15.92
2019-05-10T06:49:08.121Z,15.92
2019-05-10T06:50:01.562Z,15.95
2019-05-10T06:51:02.860Z,15.95
2019-05-10T06:52:01.558Z,16.02
2019-05-10T06:53:07.574Z,16.02
2019-05-10T06:54:01.560Z,16.08
2019-05-10T06:55:01.549Z,16.16
2019-05-10T06:56:01.544Z,16.12
2019-05-10T06:57:02.037Z,16.15
2019-05-10T06:58:01.539Z,16.12
2019-05-10T06:59:12.770Z,16.05
2019-05-10T07:00:06.006Z,16.12
2019-05-10T07:01:01.550Z,16.17
2019-05-10T07:02:02.239Z,16.10
2019-05-10T07:03:01.555Z,16.04
2019-05-10T07:04:01.539Z,16.01
2019-05-10T07:05:01.522Z,16.09
2019-05-10T07:06:01.514Z,16.00
2019-05-10T07:07:01.511Z,16.08
2019-05-10T07:08:14.022Z,16.04
2019-05-10T07:09:01.507Z,15.97
2019-05-10T07:10:12.595Z,16.04
2019-05-10T07:11:01.512Z,16.04
2019-05-10T07:12:01.510Z,16.04
2019-05-10T07:13:03.610Z,15.92
2019-05-10T07:14:01.512Z,15.91
2019-05-10T07:15:03.362Z,15.88
2019-05-10T07:16:01.485Z,15.88
2019-05-10T07:17:02.745Z,15.91
2019-05-10T07:18:01.479Z,15.90
2019-05-10T07:19:02.239Z,15.97
2019-05-10T07:20:01.476Z,16.08
2019-05-10T07:21:06.653Z,16.05
2019-05-10T07:22:01.468Z,16.09
2019-05-10T07:23:06.016Z,16.13
2019-05-10T07:24:01.501Z,16.13
2019-05-10T07:25:04.173Z,16.10
2019-05-10T07:26:01.479Z,16.10
2019-05-10T07:27:02.825Z,15.97
2019-05-10T07:28:01.484Z,15.97
2019-05-10T07:29:01.447Z,15.91
2019-05-10T07:30:01.447Z,15.95
2019-05-10T07:31:01.454Z,15.98
2019-05-10T07:32:01.451Z,15.97
2019-05-10T07:33:01.978Z,16.00
2019-05-10T07:34:01.441Z,15.95
2019-05-10T07:35:01.432Z,15.97
2019-05-10T07:36:01.433Z,16.05
2019-05-10T07:37:02.009Z,16.10
2019-05-10T07:38:01.422Z,16.13
2019-05-10T07:39:02.881Z,16.10
2019-05-10T07:40:03.493Z,16.24
2019-05-10T07:41:01.460Z,16.23
2019-05-10T07:42:06.637Z,16.21
2019-05-10T07:43:01.410Z,16.32
2019-05-10T07:44:08.084Z,16.38
2019-05-10T07:45:01.413Z,16.35
2019-05-10T07:46:06.072Z,16.36
2019-05-10T07:47:01.410Z,16.33
2019-05-10T07:48:02.552Z,16.31
2019-05-10T07:49:01.392Z,16.24
2019-05-10T07:50:03.901Z,16.20
2019-05-10T07:51:01.386Z,16.23
2019-05-10T07:52:03.079Z,16.20
2019-05-10T07:53:01.385Z,16.15
2019-05-10T07:54:04.537Z,16.13
2019-05-10T07:55:01.391Z,16.16
2019-05-10T07:56:06.030Z,16.15
2019-05-10T07:57:01.370Z,16.16
2019-05-10T07:58:04.976Z,16.17
2019-05-10T07:59:01.370Z,16.23
2019-05-10T08:00:03.470Z,16.29
2019-05-10T08:01:01.360Z,16.38
2019-05-10T08:02:05.947Z,16.42
2019-05-10T08:03:09.826Z,16.46
2019-05-10T08:04:01.350Z,16.54
2019-05-10T08:05:05.024Z,16.68
2019-05-10T08:06:02.217Z,16.74
2019-05-10T08:07:01.343Z,16.76
2019-05-10T08:08:01.347Z,16.91
2019-05-10T08:09:06.271Z,16.94
2019-05-10T08:10:04.624Z,17.01
2019-05-10T08:11:01.330Z,17.11
2019-05-10T08:12:05.135Z,17.05
2019-05-10T08:13:03.592Z,17.02
2019-05-10T08:14:06.145Z,17.11
2019-05-10T08:15:01.333Z,17.14
2019-05-10T08:16:05.486Z,17.06
2019-05-10T08:17:05.909Z,17.14
2019-05-10T08:18:01.313Z,17.11
2019-05-10T08:19:02.376Z,17.01
2019-05-10T08:20:01.310Z,17.05
2019-05-10T08:21:05.132Z,17.02
2019-05-10T08:22:04.040Z,17.01
2019-05-10T08:23:02.811Z,17.02
2019-05-10T08:24:07.170Z,17.02
2019-05-10T08:25:02.267Z,17.06
2019-05-10T08:26:04.455Z,17.14
2019-05-10T08:27:07.923Z,17.26
2019-05-10T08:28:05.035Z,17.29
2019-05-10T08:29:02.126Z,17.33
2019-05-10T08:30:20.377Z,17.44
2019-05-10T08:31:02.476Z,17.39
2019-05-10T08:32:03.012Z,17.57
2019-05-10T08:33:09.358Z,17.56
2019-05-10T08:34:02.191Z,17.57
2019-05-10T08:35:05.014Z,17.59
2019-05-10T08:36:05.214Z,17.60
2019-05-10T08:37:02.589Z,17.63
2019-05-10T08:38:02.324Z,17.72
2019-05-10T08:39:10.046Z,17.85
2019-05-10T08:40:03.160Z,18.00
2019-05-10T08:41:02.667Z,18.00
2019-05-10T08:42:08.969Z,18.00
2019-05-10T08:43:06.654Z,18.01
2019-05-10T08:44:04.627Z,17.82
2019-05-10T08:45:05.367Z,17.79
2019-05-10T08:46:02.632Z,17.72
2019-05-10T08:47:02.277Z,17.82
2019-05-10T08:48:06.859Z,17.82
2019-05-10T08:49:02.107Z,17.79
2019-05-10T08:50:18.701Z,17.80
2019-05-10T08:51:04.000Z,17.83
2019-05-10T08:52:02.868Z,17.95
2019-05-10T08:53:04.351Z,18.10
2019-05-10T08:54:01.745Z,18.11
2019-05-10T08:55:02.747Z,18.11
2019-05-10T08:56:02.218Z,18.11
2019-05-10T08:57:05.175Z,18.11
2019-05-10T08:58:02.939Z,18.18
2019-05-10T08:59:03.779Z,18.15
2019-05-10T09:00:07.146Z,17.98
2019-05-10T09:01:16.270Z,18.03
2019-05-10T09:02:02.187Z,18.03
2019-05-10T09:03:09.529Z,18.04
2019-05-10T09:04:06.651Z,17.89
2019-05-10T09:05:02.711Z,17.86
2019-05-10T09:06:05.317Z,17.95
2019-05-10T09:07:02.798Z,18.01
2019-05-10T09:08:05.409Z,18.04
2019-05-10T09:09:03.183Z,18.31
2019-05-10T09:10:02.265Z,18.52
2019-05-10T09:11:06.434Z,18.73
2019-05-10T09:12:04.161Z,18.99
2019-05-10T09:13:03.242Z,19.64
2019-05-10T09:14:03.150Z,20.19
2019-05-10T09:15:08.383Z,20.06
2019-05-10T09:16:02.458Z,19.96
2019-05-10T09:17:04.377Z,19.88
2019-05-10T09:18:04.390Z,19.84
2019-05-10T09:19:02.544Z,19.74
2019-05-10T09:20:02.707Z,19.69
2019-05-10T09:21:09.090Z,19.59
2019-05-10T09:22:01.935Z,19.59
2019-05-10T09:23:02.403Z,19.40
2019-05-10T09:24:05.889Z,19.34
2019-05-10T09:25:01.799Z,19.19
2019-05-10T09:26:09.829Z,19.16
2019-05-10T09:27:01.875Z,19.14
2019-05-10T09:28:10.683Z,18.93
2019-05-10T09:29:01.716Z,18.92
2019-05-10T09:30:02.923Z,18.98
2019-05-10T09:31:17.057Z,18.95
2019-05-10T09:32:06.292Z,18.95
2019-05-10T09:33:08.460Z,18.84
2019-05-10T09:34:02.408Z,18.83
2019-05-10T09:35:07.522Z,18.83
2019-05-10T09:36:02.914Z,18.78
2019-05-10T09:37:02.964Z,18.71
2019-05-10T09:38:01.980Z,18.68
2019-05-10T09:39:03.404Z,18.44
2019-05-10T09:40:09.352Z,18.34
2019-05-10T09:41:02.427Z,18.25
2019-05-10T09:42:08.240Z,18.28
2019-05-10T09:43:05.157Z,18.29
2019-05-10T09:44:03.053Z,18.22
2019-05-10T09:45:03.094Z,18.16
2019-05-10T09:46:02.691Z,18.08
2019-05-10T09:47:03.681Z,18.01
2019-05-10T09:48:02.517Z,18.00
2019-05-10T09:49:13.718Z,18.00
2019-05-10T09:50:02.273Z,18.00
2019-05-10T09:51:04.194Z,17.98
2019-05-10T09:52:04.600Z,17.97
2019-05-10T09:53:01.514Z,17.92
2019-05-10T09:54:01.204Z,17.97
2019-05-10T09:55:03.923Z,18.00
2019-05-10T09:56:03.162Z,18.01
2019-05-10T09:57:01.219Z,18.05
2019-05-10T09:58:01.226Z,18.16
2019-05-10T09:59:01.199Z,18.11
2019-05-10T10:00:01.196Z,18.15
2019-05-10T10:01:13.358Z,18.25
2019-05-10T10:02:04.954Z,18.25
2019-05-10T10:03:01.861Z,18.23
2019-05-10T10:04:02.340Z,18.37
2019-05-10T10:05:01.195Z,18.38
2019-05-10T10:06:07.449Z,18.38
2019-05-10T10:07:01.193Z,18.38
2019-05-10T10:08:03.772Z,18.40
2019-05-10T10:09:01.211Z,18.45
2019-05-10T10:10:01.190Z,18.47
2019-05-10T10:11:10.477Z,18.53
2019-05-10T10:12:03.204Z,18.50
2019-05-10T10:13:11.481Z,18.49
2019-05-10T10:14:02.213Z,18.41
2019-05-10T10:15:01.182Z,18.29
2019-05-10T10:16:03.983Z,18.08
2019-05-10T10:17:03.108Z,17.92
2019-05-10T10:18:01.204Z,17.74
2019-05-10T10:19:01.179Z,17.60
2019-05-10T10:20:01.177Z,17.49
2019-05-10T10:21:01.175Z,17.49
2019-05-10T10:22:05.487Z,17.51
2019-05-10T10:23:01.175Z,17.34
2019-05-10T10:24:12.764Z,17.30
2019-05-10T10:25:01.175Z,17.27
2019-05-10T10:26:01.176Z,17.30
2019-05-10T10:27:01.174Z,17.24
2019-05-10T10:28:01.173Z,17.08
2019-05-10T10:29:01.164Z,17.16
2019-05-10T10:30:01.163Z,17.27
2019-05-10T10:31:05.202Z,17.30
2019-05-10T10:32:01.159Z,17.49
2019-05-10T10:33:05.843Z,17.56
2019-05-10T10:34:03.104Z,17.56
2019-05-10T10:35:01.489Z,17.63
2019-05-10T10:36:04.808Z,17.72
2019-05-10T10:37:01.525Z,17.90
2019-05-10T10:38:02.994Z,18.31
2019-05-10T10:39:01.207Z,18.52
2019-05-10T10:40:05.478Z,19.18
2019-05-10T10:41:01.147Z,20.02
2019-05-10T10:42:02.490Z,20.32
2019-05-10T10:43:01.292Z,20.84
2019-05-10T10:44:01.143Z,21.05
2019-05-10T10:45:01.162Z,21.07
2019-05-10T10:46:01.298Z,20.95
2019-05-10T10:47:01.146Z,20.74
2019-05-10T10:48:02.499Z,20.58
2019-05-10T10:49:01.145Z,20.43
2019-05-10T10:50:02.906Z,20.34
2019-05-10T10:51:01.160Z,20.16
2019-05-10T10:52:05.615Z,20.24
2019-05-10T10:53:01.148Z,20.03
2019-05-10T10:54:01.150Z,19.94
2019-05-10T10:55:05.685Z,19.88
2019-05-10T10:56:03.759Z,19.67
2019-05-10T10:57:01.156Z,19.76
2019-05-10T10:58:01.151Z,19.66
2019-05-10T10:59:01.156Z,19.69
2019-05-10T11:00:01.162Z,19.84
2019-05-10T11:01:01.153Z,19.91
2019-05-10T11:02:27.926Z,20.04
2019-05-10T11:03:01.153Z,21.09
2019-05-10T11:04:03.709Z,21.57
2019-05-10T11:05:01.180Z,21.42
2019-05-10T11:06:01.231Z,22.04
2019-05-10T11:07:09.845Z,21.67
2019-05-10T11:08:01.824Z,21.39
2019-05-10T11:09:01.744Z,21.12
2019-05-10T11:10:14.742Z,21.09
2019-05-10T11:11:01.193Z,20.92
2019-05-10T11:12:01.234Z,20.92
2019-05-10T11:13:02.884Z,21.18
2019-05-10T11:14:07.328Z,21.21
2019-05-10T11:15:01.250Z,21.07
2019-05-10T11:16:09.758Z,20.90
2019-05-10T11:17:01.247Z,20.85
2019-05-10T11:18:01.174Z,21.36
2019-05-10T11:19:03.857Z,21.54
2019-05-10T11:20:01.178Z,21.20
2019-05-10T11:21:02.059Z,20.96
2019-05-10T11:22:04.431Z,20.56
2019-05-10T11:23:01.859Z,20.43
2019-05-10T11:24:01.540Z,20.41
2019-05-10T11:25:09.173Z,20.92
2019-05-10T11:26:01.421Z,21.15
2019-05-10T11:27:01.219Z,21.51
2019-05-10T11:28:01.875Z,21.80
2019-05-10T11:29:01.411Z,21.75
2019-05-10T11:30:01.249Z,21.67
2019-05-10T11:31:01.317Z,21.29
2019-05-10T11:33:29.716Z,20.95
2019-05-10T11:34:37.199Z,20.77
2019-05-10T11:36:45.772Z,20.59
2019-05-10T11:39:25.572Z,20.09
2019-05-10T11:40:52.765Z,20.06
2019-05-10T11:42:01.064Z,20.07
2019-05-10T11:43:48.226Z,21.12
2019-05-10T11:44:52.801Z,21.98
2019-05-10T11:46:42.979Z,23.66
2019-05-10T11:47:42.743Z,24.16
2019-05-10T11:49:37.112Z,24.06
2019-05-10T11:50:37.138Z,24.39
2019-05-10T11:52:34.898Z,24.98
2019-05-10T11:53:31.653Z,24.47
2019-05-10T11:55:25.907Z,23.65
2019-05-10T11:56:27.809Z,23.09
2019-05-10T11:58:23.730Z,22.38
2019-05-10T11:59:21.822Z,22.20
2019-05-10T12:01:19.264Z,21.77
2019-05-10T12:02:33.928Z,21.66
2019-05-10T12:04:21.774Z,21.61
2019-05-10T12:05:12.278Z,21.60
2019-05-10T12:07:08.448Z,21.57
2019-05-10T12:08:03.630Z,21.52
2019-05-10T12:10:08.268Z,21.22
2019-05-10T12:11:10.230Z,21.18
2019-05-10T12:13:06.169Z,21.20
2019-05-10T12:13:57.228Z,21.20
2019-05-10T12:15:46.775Z,21.18
2019-05-10T12:16:46.783Z,21.03
2019-05-10T12:19:00.689Z,21.18
2019-05-10T12:19:47.792Z,21.18
2019-05-10T12:21:35.643Z,21.11
2019-05-10T12:22:38.277Z,21.09
2019-05-10T12:24:45.298Z,21.07
2019-05-10T12:25:46.306Z,21.06
2019-05-10T12:27:41.775Z,21.00
2019-05-10T12:28:31.528Z,20.97
2019-05-10T12:30:22.739Z,20.96
2019-05-10T12:31:23.302Z,20.88
2019-05-10T12:33:25.299Z,20.85
2019-05-10T12:34:17.114Z,20.67
2019-05-10T12:36:22.107Z,20.69
2019-05-10T12:37:11.499Z,20.69
2019-05-10T12:39:06.333Z,20.58
2019-05-10T12:40:11.955Z,20.47
2019-05-10T12:42:00.724Z,20.41
2019-05-10T12:43:00.787Z,20.43
2019-05-10T12:44:55.863Z,20.41
2019-05-10T12:45:55.056Z,20.44
2019-05-10T12:47:51.726Z,20.44
2019-05-10T12:48:51.642Z,20.60
2019-05-10T12:50:44.444Z,20.63
2019-05-10T12:51:43.869Z,20.65
2019-05-10T12:53:44.408Z,20.55
2019-05-10T12:54:38.188Z,20.58
2019-05-10T12:56:35.027Z,20.55
2019-05-10T12:57:32.583Z,20.44
2019-05-10T12:59:29.646Z,20.52
2019-05-10T13:00:26.926Z,20.44
2019-05-10T13:02:21.379Z,20.21
2019-05-10T13:03:25.494Z,20.10
2019-05-10T13:05:16.094Z,19.95
2019-05-10T13:06:19.467Z,19.89
2019-05-10T13:08:10.204Z,19.96
2019-05-10T13:09:10.195Z,19.86
2019-05-10T13:11:04.620Z,19.99
2019-05-10T13:12:06.338Z,19.99
2019-05-10T13:14:01.056Z,20.03
2019-05-10T13:14:59.054Z,20.04
2019-05-10T13:16:53.451Z,20.10
2019-05-10T13:17:53.417Z,19.95
2019-05-10T13:19:52.728Z,19.91
2019-05-10T13:20:47.971Z,20.06
2019-05-10T13:22:42.340Z,19.92
2019-05-10T13:23:42.338Z,19.91
2019-05-10T13:25:41.437Z,19.91
2019-05-10T13:26:41.354Z,19.85
2019-05-10T13:28:35.611Z,19.84
2019-05-10T13:29:35.604Z,19.88
2019-05-10T13:31:30.028Z,19.77